Airport View

Enter AWOS ICAO identifier for current METAR.

ex. KFNL

KMER 192045Z 25004KT 10SM SKC A2991

19 Aug 2019 21:43

Frequency: 124.475

Phone: 209-725-0104

Other Area AWOS: KMCE - KMOD - KMAE - KO22

TAF KMER 191720Z 1918/2018 32006KT P6SM SKC